Terminal Aerodrome Forecast
Issued by NWS

Home | Current Version | Previous Version | Graphics & Text | Print | Product List | Glossary On
Versions: 1 2 3 4 5 6 7 8 9 10 11 12 13 14 15
650
FTUS43 KGRB 222332
TAFAUW
TAF
KAUW 222332Z 2300/2324 20005KT P6SM -SHRA SCT009 OVC050
      TEMPO 2300/2303 5SM SHRA BKN009
     FM230600 29003KT P6SM BKN090
     FM231400 28007KT P6SM SCT090
     FM231500 28009G14KT P6SM SCT035
     FM231700 29012G21KT P6SM SCT040=

USA.gov is the U.S. government's official web portal to all federal, state and local government web resources and services.